sensor_id;sensor_type;location;lat;lon;timestamp;temperature;humidity
50013;DHT22;35901;48.694;9.476;2022-09-27T00:00:42;9.20;99.90
50013;DHT22;35901;48.694;9.476;2022-09-27T00:03:11;9.10;99.90
50013;DHT22;35901;48.694;9.476;2022-09-27T00:05:37;9.10;99.90
50013;DHT22;35901;48.694;9.476;2022-09-27T00:08:04;9.00;99.90
50013;DHT22;35901;48.694;9.476;2022-09-27T00:10:30;9.00;99.90
50013;DHT22;35901;48.694;9.476;2022-09-27T00:12:57;9.00;99.90
50013;DHT22;35901;48.694;9.476;2022-09-27T00:15:23;9.00;99.90
50013;DHT22;35901;48.694;9.476;2022-09-27T00:17:49;9.00;99.90
50013;DHT22;35901;48.694;9.476;2022-09-27T00:20:18;9.00;99.90
50013;DHT22;35901;48.694;9.476;2022-09-27T00:22:46;9.00;99.90
50013;DHT22;35901;48.694;9.476;2022-09-27T00:25:13;9.00;99.90
50013;DHT22;35901;48.694;9.476;2022-09-27T00:27:39;9.00;99.90
50013;DHT22;35901;48.694;9.476;2022-09-27T00:30:05;9.00;99.90
50013;DHT22;35901;48.694;9.476;2022-09-27T00:32:31;9.00;99.90
50013;DHT22;35901;48.694;9.476;2022-09-27T00:34:57;9.00;99.90
50013;DHT22;35901;48.694;9.476;2022-09-27T00:37:23;9.00;99.90
50013;DHT22;35901;48.694;9.476;2022-09-27T00:39:50;9.00;99.90
50013;DHT22;35901;48.694;9.476;2022-09-27T00:42:16;9.00;99.90
50013;DHT22;35901;48.694;9.476;2022-09-27T00:44:58;9.00;99.90
50013;DHT22;35901;48.694;9.476;2022-09-27T00:47:26;9.00;99.90
50013;DHT22;35901;48.694;9.476;2022-09-27T00:55:29;9.00;99.90
50013;DHT22;35901;48.694;9.476;2022-09-27T00:57:56;9.00;99.90
50013;DHT22;35901;48.694;9.476;2022-09-27T01:00:22;9.00;99.90
50013;DHT22;35901;48.694;9.476;2022-09-27T01:02:54;9.00;99.90
50013;DHT22;35901;48.694;9.476;2022-09-27T01:05:23;9.00;99.90
50013;DHT22;35901;48.694;9.476;2022-09-27T01:07:52;9.00;99.90
50013;DHT22;35901;48.694;9.476;2022-09-27T01:10:22;9.00;99.90
50013;DHT22;35901;48.694;9.476;2022-09-27T01:13:00;9.00;99.90
50013;DHT22;35901;48.694;9.476;2022-09-27T01:15:45;9.10;99.90
50013;DHT22;35901;48.694;9.476;2022-09-27T01:29:26;9.10;99.90
50013;DHT22;35901;48.694;9.476;2022-09-27T01:32:06;9.10;99.90
50013;DHT22;35901;48.694;9.476;2022-09-27T01:34:35;9.10;99.90
50013;DHT22;35901;48.694;9.476;2022-09-27T01:40:24;9.10;99.90
50013;DHT22;35901;48.694;9.476;2022-09-27T01:43:20;9.20;99.90
50013;DHT22;35901;48.694;9.476;2022-09-27T01:45:58;9.20;99.90
50013;DHT22;35901;48.694;9.476;2022-09-27T01:48:53;9.30;99.90
50013;DHT22;35901;48.694;9.476;2022-09-27T01:51:34;9.20;99.90
50013;DHT22;35901;48.694;9.476;2022-09-27T01:54:04;9.20;99.90
50013;DHT22;35901;48.694;9.476;2022-09-27T01:56:55;9.20;99.90
50013;DHT22;35901;48.694;9.476;2022-09-27T01:59:41;9.20;99.90
50013;DHT22;35901;48.694;9.476;2022-09-27T02:02:52;9.20;99.90
50013;DHT22;35901;48.694;9.476;2022-09-27T02:05:56;9.30;99.90
50013;DHT22;35901;48.694;9.476;2022-09-27T02:08:59;9.40;99.90
50013;DHT22;35901;48.694;9.476;2022-09-27T02:11:46;9.40;99.90
50013;DHT22;35901;48.694;9.476;2022-09-27T02:22:50;9.50;99.90
50013;DHT22;35901;48.694;9.476;2022-09-27T02:25:43;9.50;99.90
50013;DHT22;35901;48.694;9.476;2022-09-27T02:28:34;9.60;99.90
50013;DHT22;35901;48.694;9.476;2022-09-27T02:31:04;9.60;99.90
50013;DHT22;35901;48.694;9.476;2022-09-27T02:33:39;9.60;99.90
50013;DHT22;35901;48.694;9.476;2022-09-27T02:36:07;9.60;99.90
50013;DHT22;35901;48.694;9.476;2022-09-27T02:38:34;9.60;99.90
50013;DHT22;35901;48.694;9.476;2022-09-27T02:41:01;9.60;99.90
50013;DHT22;35901;48.694;9.476;2022-09-27T02:43:29;9.50;99.90
50013;DHT22;35901;48.694;9.476;2022-09-27T02:52:04;9.20;99.90
50013;DHT22;35901;48.694;9.476;2022-09-27T02:58:10;9.10;99.90
50013;DHT22;35901;48.694;9.476;2022-09-27T03:01:02;9.10;99.90
50013;DHT22;35901;48.694;9.476;2022-09-27T03:06:33;9.10;99.90
50013;DHT22;35901;48.694;9.476;2022-09-27T03:09:00;9.10;99.90
50013;DHT22;35901;48.694;9.476;2022-09-27T03:11:25;9.10;99.90
50013;DHT22;35901;48.694;9.476;2022-09-27T03:13:51;9.10;99.90
50013;DHT22;35901;48.694;9.476;2022-09-27T03:16:17;9.00;99.90
50013;DHT22;35901;48.694;9.476;2022-09-27T03:19:11;9.00;99.90
50013;DHT22;35901;48.694;9.476;2022-09-27T03:21:59;9.00;99.90
50013;DHT22;35901;48.694;9.476;2022-09-27T03:24:25;9.00;99.90
50013;DHT22;35901;48.694;9.476;2022-09-27T03:26:51;9.00;99.90
50013;DHT22;35901;48.694;9.476;2022-09-27T03:29:17;8.90;99.90
50013;DHT22;35901;48.694;9.476;2022-09-27T03:31:47;8.90;99.90
50013;DHT22;35901;48.694;9.476;2022-09-27T03:34:33;8.90;99.90
50013;DHT22;35901;48.694;9.476;2022-09-27T03:36:59;8.80;99.90
50013;DHT22;35901;48.694;9.476;2022-09-27T03:39:24;8.80;99.90
50013;DHT22;35901;48.694;9.476;2022-09-27T03:41:50;8.80;99.90
50013;DHT22;35901;48.694;9.476;2022-09-27T03:44:16;8.70;99.90
50013;DHT22;35901;48.694;9.476;2022-09-27T03:46:42;8.70;99.90
50013;DHT22;35901;48.694;9.476;2022-09-27T03:49:07;8.80;99.90
50013;DHT22;35901;48.694;9.476;2022-09-27T03:51:33;8.70;99.90
50013;DHT22;35901;48.694;9.476;2022-09-27T03:53:59;8.70;99.90
50013;DHT22;35901;48.694;9.476;2022-09-27T03:56:24;8.70;99.90
50013;DHT22;35901;48.694;9.476;2022-09-27T03:58:50;8.70;99.90
50013;DHT22;35901;48.694;9.476;2022-09-27T04:01:17;8.80;99.90
50013;DHT22;35901;48.694;9.476;2022-09-27T04:03:45;8.80;99.90
50013;DHT22;35901;48.694;9.476;2022-09-27T04:06:28;8.80;99.90
50013;DHT22;35901;48.694;9.476;2022-09-27T04:08:55;8.90;99.90
50013;DHT22;35901;48.694;9.476;2022-09-27T04:11:24;8.90;99.90
50013;DHT22;35901;48.694;9.476;2022-09-27T04:13:50;8.90;99.90
50013;DHT22;35901;48.694;9.476;2022-09-27T04:16:17;8.90;99.90
50013;DHT22;35901;48.694;9.476;2022-09-27T04:18:52;8.90;99.90
50013;DHT22;35901;48.694;9.476;2022-09-27T04:21:40;8.90;99.90
50013;DHT22;35901;48.694;9.476;2022-09-27T04:24:08;8.90;99.90
50013;DHT22;35901;48.694;9.476;2022-09-27T04:26:37;8.90;99.90
50013;DHT22;35901;48.694;9.476;2022-09-27T04:29:09;8.90;99.90
50013;DHT22;35901;48.694;9.476;2022-09-27T04:31:38;8.90;99.90
50013;DHT22;35901;48.694;9.476;2022-09-27T04:34:26;9.00;99.90
50013;DHT22;35901;48.694;9.476;2022-09-27T04:37:10;9.00;99.90
50013;DHT22;35901;48.694;9.476;2022-09-27T04:39:42;9.00;99.90
50013;DHT22;35901;48.694;9.476;2022-09-27T04:42:07;9.00;99.90
50013;DHT22;35901;48.694;9.476;2022-09-27T04:44:34;9.00;99.90
50013;DHT22;35901;48.694;9.476;2022-09-27T04:47:00;9.10;99.90
50013;DHT22;35901;48.694;9.476;2022-09-27T04:49:26;9.00;99.90
50013;DHT22;35901;48.694;9.476;2022-09-27T04:51:51;9.00;99.90
50013;DHT22;35901;48.694;9.476;2022-09-27T04:54:17;9.00;99.90
50013;DHT22;35901;48.694;9.476;2022-09-27T04:56:52;9.00;99.90
50013;DHT22;35901;48.694;9.476;2022-09-27T04:59:18;8.90;99.90
50013;DHT22;35901;48.694;9.476;2022-09-27T05:01:44;8.90;99.90
50013;DHT22;35901;48.694;9.476;2022-09-27T05:04:39;8.90;99.90
50013;DHT22;35901;48.694;9.476;2022-09-27T05:07:07;8.90;99.90
50013;DHT22;35901;48.694;9.476;2022-09-27T05:09:42;8.90;99.90
50013;DHT22;35901;48.694;9.476;2022-09-27T05:12:07;8.90;99.90
50013;DHT22;35901;48.694;9.476;2022-09-27T05:14:55;8.80;99.90
50013;DHT22;35901;48.694;9.476;2022-09-27T05:17:40;8.90;99.90
50013;DHT22;35901;48.694;9.476;2022-09-27T05:20:24;8.90;99.90
50013;DHT22;35901;48.694;9.476;2022-09-27T05:22:53;8.90;99.90
50013;DHT22;35901;48.694;9.476;2022-09-27T05:25:19;8.90;99.90
50013;DHT22;35901;48.694;9.476;2022-09-27T05:27:45;8.90;99.90
50013;DHT22;35901;48.694;9.476;2022-09-27T05:30:12;8.90;99.90
50013;DHT22;35901;48.694;9.476;2022-09-27T05:32:46;8.90;99.90
50013;DHT22;35901;48.694;9.476;2022-09-27T05:35:41;8.90;99.90
50013;DHT22;35901;48.694;9.476;2022-09-27T05:38:07;8.90;99.90
50013;DHT22;35901;48.694;9.476;2022-09-27T05:40:35;8.90;99.90
50013;DHT22;35901;48.694;9.476;2022-09-27T05:43:01;8.90;99.90
50013;DHT22;35901;48.694;9.476;2022-09-27T05:45:26;8.80;99.90
50013;DHT22;35901;48.694;9.476;2022-09-27T05:47:56;8.70;99.90
50013;DHT22;35901;48.694;9.476;2022-09-27T05:50:26;8.70;99.90
50013;DHT22;35901;48.694;9.476;2022-09-27T05:52:53;8.70;99.90
50013;DHT22;35901;48.694;9.476;2022-09-27T05:55:20;8.70;99.90
50013;DHT22;35901;48.694;9.476;2022-09-27T05:57:59;8.70;99.90
50013;DHT22;35901;48.694;9.476;2022-09-27T06:00:36;8.70;99.90
50013;DHT22;35901;48.694;9.476;2022-09-27T06:03:10;8.60;99.90
50013;DHT22;35901;48.694;9.476;2022-09-27T06:06:01;8.60;99.90
50013;DHT22;35901;48.694;9.476;2022-09-27T06:08:50;8.60;99.90
50013;DHT22;35901;48.694;9.476;2022-09-27T06:11:18;8.50;99.90
50013;DHT22;35901;48.694;9.476;2022-09-27T06:13:45;8.50;99.90
50013;DHT22;35901;48.694;9.476;2022-09-27T06:16:11;8.50;99.90
50013;DHT22;35901;48.694;9.476;2022-09-27T06:18:41;8.40;99.90
50013;DHT22;35901;48.694;9.476;2022-09-27T06:21:06;8.40;99.90
50013;DHT22;35901;48.694;9.476;2022-09-27T06:23:33;8.40;99.90
50013;DHT22;35901;48.694;9.476;2022-09-27T06:26:08;8.30;99.90
50013;DHT22;35901;48.694;9.476;2022-09-27T06:28:55;8.30;99.90
50013;DHT22;35901;48.694;9.476;2022-09-27T06:31:22;8.30;99.90
50013;DHT22;35901;48.694;9.476;2022-09-27T06:34:00;8.30;99.90
50013;DHT22;35901;48.694;9.476;2022-09-27T06:36:27;8.30;99.90
50013;DHT22;35901;48.694;9.476;2022-09-27T06:38:53;8.40;99.90
50013;DHT22;35901;48.694;9.476;2022-09-27T06:41:30;8.40;99.90
50013;DHT22;35901;48.694;9.476;2022-09-27T06:44:23;8.40;99.90
50013;DHT22;35901;48.694;9.476;2022-09-27T06:47:16;8.40;99.90
50013;DHT22;35901;48.694;9.476;2022-09-27T06:50:02;8.50;99.90
50013;DHT22;35901;48.694;9.476;2022-09-27T06:52:32;8.50;99.90
50013;DHT22;35901;48.694;9.476;2022-09-27T06:54:58;8.60;99.90
50013;DHT22;35901;48.694;9.476;2022-09-27T06:57:24;8.70;99.90
50013;DHT22;35901;48.694;9.476;2022-09-27T07:00:10;8.70;99.90
50013;DHT22;35901;48.694;9.476;2022-09-27T07:03:10;8.60;99.90
50013;DHT22;35901;48.694;9.476;2022-09-27T07:06:06;8.60;99.90
50013;DHT22;35901;48.694;9.476;2022-09-27T07:08:49;8.60;99.90
50013;DHT22;35901;48.694;9.476;2022-09-27T07:11:16;8.60;99.90
50013;DHT22;35901;48.694;9.476;2022-09-27T07:13:42;8.60;99.90
50013;DHT22;35901;48.694;9.476;2022-09-27T07:16:15;8.60;99.90
50013;DHT22;35901;48.694;9.476;2022-09-27T07:18:41;8.80;99.90
50013;DHT22;35901;48.694;9.476;2022-09-27T07:21:07;8.90;99.90
50013;DHT22;35901;48.694;9.476;2022-09-27T07:23:34;9.00;99.90
50013;DHT22;35901;48.694;9.476;2022-09-27T07:26:02;9.10;99.90
50013;DHT22;35901;48.694;9.476;2022-09-27T07:28:33;9.20;99.90
50013;DHT22;35901;48.694;9.476;2022-09-27T07:31:01;9.20;99.90
50013;DHT22;35901;48.694;9.476;2022-09-27T07:33:28;9.30;99.90
50013;DHT22;35901;48.694;9.476;2022-09-27T07:35:53;9.30;99.90
50013;DHT22;35901;48.694;9.476;2022-09-27T07:38:19;9.20;99.90
50013;DHT22;35901;48.694;9.476;2022-09-27T07:40:45;9.20;99.90
50013;DHT22;35901;48.694;9.476;2022-09-27T07:43:11;9.20;99.90
50013;DHT22;35901;48.694;9.476;2022-09-27T07:45:38;9.20;99.90
50013;DHT22;35901;48.694;9.476;2022-09-27T07:48:12;9.30;99.90
50013;DHT22;35901;48.694;9.476;2022-09-27T07:51:08;9.30;99.90
50013;DHT22;35901;48.694;9.476;2022-09-27T07:53:41;9.30;99.90
50013;DHT22;35901;48.694;9.476;2022-09-27T07:56:26;9.30;99.90
50013;DHT22;35901;48.694;9.476;2022-09-27T07:58:53;9.30;99.90
50013;DHT22;35901;48.694;9.476;2022-09-27T08:01:19;9.20;99.90
50013;DHT22;35901;48.694;9.476;2022-09-27T08:03:46;9.20;99.90
50013;DHT22;35901;48.694;9.476;2022-09-27T08:06:13;9.20;99.90
50013;DHT22;35901;48.694;9.476;2022-09-27T08:08:38;9.20;99.90
50013;DHT22;35901;48.694;9.476;2022-09-27T08:11:16;9.30;99.90
50013;DHT22;35901;48.694;9.476;2022-09-27T08:13:45;9.40;99.90
50013;DHT22;35901;48.694;9.476;2022-09-27T08:16:11;9.60;99.90
50013;DHT22;35901;48.694;9.476;2022-09-27T08:19:07;10.00;99.90
50013;DHT22;35901;48.694;9.476;2022-09-27T08:22:06;10.50;99.90
50013;DHT22;35901;48.694;9.476;2022-09-27T08:24:40;11.00;99.90
50013;DHT22;35901;48.694;9.476;2022-09-27T08:27:37;11.20;99.90
50013;DHT22;35901;48.694;9.476;2022-09-27T08:30:16;11.20;99.90
50013;DHT22;35901;48.694;9.476;2022-09-27T08:32:44;11.00;99.90
50013;DHT22;35901;48.694;9.476;2022-09-27T08:35:10;10.80;99.90
50013;DHT22;35901;48.694;9.476;2022-09-27T08:37:40;10.60;99.90
50013;DHT22;35901;48.694;9.476;2022-09-27T08:40:06;10.50;99.90
50013;DHT22;35901;48.694;9.476;2022-09-27T08:42:45;10.50;99.90
50013;DHT22;35901;48.694;9.476;2022-09-27T08:45:24;10.40;99.90
50013;DHT22;35901;48.694;9.476;2022-09-27T08:47:57;10.50;99.90
50013;DHT22;35901;48.694;9.476;2022-09-27T08:53:19;10.60;99.90
50013;DHT22;35901;48.694;9.476;2022-09-27T08:55:48;10.70;99.90
50013;DHT22;35901;48.694;9.476;2022-09-27T08:58:26;10.80;99.90
50013;DHT22;35901;48.694;9.476;2022-09-27T09:00:55;10.80;99.90
50013;DHT22;35901;48.694;9.476;2022-09-27T09:03:30;10.60;99.90
50013;DHT22;35901;48.694;9.476;2022-09-27T09:11:26;10.30;99.90
50013;DHT22;35901;48.694;9.476;2022-09-27T09:17:46;9.70;99.90
50013;DHT22;35901;48.694;9.476;2022-09-27T09:34:59;9.80;99.90
50013;DHT22;35901;48.694;9.476;2022-09-27T09:40:01;11.00;99.90
50013;DHT22;35901;48.694;9.476;2022-09-27T09:42:30;11.10;99.90
50013;DHT22;35901;48.694;9.476;2022-09-27T09:47:39;11.10;99.90
50013;DHT22;35901;48.694;9.476;2022-09-27T09:50:55;11.10;99.90
50013;DHT22;35901;48.694;9.476;2022-09-27T09:53:35;11.40;99.90
50013;DHT22;35901;48.694;9.476;2022-09-27T09:59:00;12.50;99.90
50013;DHT22;35901;48.694;9.476;2022-09-27T10:01:41;12.70;99.90
50013;DHT22;35901;48.694;9.476;2022-09-27T10:04:17;12.90;99.90
50013;DHT22;35901;48.694;9.476;2022-09-27T10:06:45;12.70;99.90
50013;DHT22;35901;48.694;9.476;2022-09-27T10:09:13;12.30;99.90
50013;DHT22;35901;48.694;9.476;2022-09-27T10:12:00;12.00;99.90
50013;DHT22;35901;48.694;9.476;2022-09-27T10:14:29;11.90;99.90
50013;DHT22;35901;48.694;9.476;2022-09-27T10:17:03;12.00;99.90
50013;DHT22;35901;48.694;9.476;2022-09-27T10:19:32;12.00;99.90
50013;DHT22;35901;48.694;9.476;2022-09-27T10:22:13;12.10;99.90
50013;DHT22;35901;48.694;9.476;2022-09-27T10:24:54;12.10;99.90
50013;DHT22;35901;48.694;9.476;2022-09-27T10:27:48;12.20;99.90
50013;DHT22;35901;48.694;9.476;2022-09-27T10:30:27;12.80;99.90
50013;DHT22;35901;48.694;9.476;2022-09-27T10:32:58;13.00;99.90
50013;DHT22;35901;48.694;9.476;2022-09-27T10:35:43;13.00;99.90
50013;DHT22;35901;48.694;9.476;2022-09-27T10:40:42;13.30;99.80
50013;DHT22;35901;48.694;9.476;2022-09-27T10:48:33;12.80;99.90
50013;DHT22;35901;48.694;9.476;2022-09-27T10:51:04;12.60;99.90
50013;DHT22;35901;48.694;9.476;2022-09-27T10:53:36;12.20;99.90
50013;DHT22;35901;48.694;9.476;2022-09-27T10:56:22;12.10;99.90
50013;DHT22;35901;48.694;9.476;2022-09-27T10:58:49;12.00;99.90
50013;DHT22;35901;48.694;9.476;2022-09-27T11:01:17;11.90;99.90
50013;DHT22;35901;48.694;9.476;2022-09-27T11:04:25;11.90;99.90
50013;DHT22;35901;48.694;9.476;2022-09-27T11:07:16;11.80;99.90
50013;DHT22;35901;48.694;9.476;2022-09-27T11:09:55;11.60;99.90
50013;DHT22;35901;48.694;9.476;2022-09-27T11:12:29;11.50;99.90
50013;DHT22;35901;48.694;9.476;2022-09-27T11:15:04;11.50;99.90
50013;DHT22;35901;48.694;9.476;2022-09-27T11:20:35;11.80;99.90
50013;DHT22;35901;48.694;9.476;2022-09-27T11:26:22;12.20;99.90
50013;DHT22;35901;48.694;9.476;2022-09-27T11:38:28;12.50;98.40
50013;DHT22;35901;48.694;9.476;2022-09-27T11:44:32;12.50;97.80
50013;DHT22;35901;48.694;9.476;2022-09-27T11:53:28;12.40;97.90
50013;DHT22;35901;48.694;9.476;2022-09-27T11:58:48;12.20;97.40
50013;DHT22;35901;48.694;9.476;2022-09-27T12:01:48;12.00;97.60
50013;DHT22;35901;48.694;9.476;2022-09-27T12:07:26;11.80;97.90
50013;DHT22;35901;48.694;9.476;2022-09-27T12:09:56;12.20;97.20
50013;DHT22;35901;48.694;9.476;2022-09-27T12:12:29;12.60;96.70
50013;DHT22;35901;48.694;9.476;2022-09-27T12:15:42;13.20;96.10
50013;DHT22;35901;48.694;9.476;2022-09-27T12:17:51;13.60;95.40
50013;DHT22;35901;48.694;9.476;2022-09-27T12:20:33;13.60;95.10
50013;DHT22;35901;48.694;9.476;2022-09-27T12:23:19;13.40;95.40
50013;DHT22;35901;48.694;9.476;2022-09-27T12:26:19;13.10;95.50
50013;DHT22;35901;48.694;9.476;2022-09-27T12:28:54;12.90;95.70
50013;DHT22;35901;48.694;9.476;2022-09-27T12:31:33;12.60;96.00
50013;DHT22;35901;48.694;9.476;2022-09-27T12:36:33;11.70;98.70
50013;DHT22;35901;48.694;9.476;2022-09-27T12:39:21;11.00;99.90
50013;DHT22;35901;48.694;9.476;2022-09-27T12:42:03;10.40;99.90
50013;DHT22;35901;48.694;9.476;2022-09-27T12:44:44;10.00;99.90
50013;DHT22;35901;48.694;9.476;2022-09-27T12:50:14;9.70;99.90
50013;DHT22;35901;48.694;9.476;2022-09-27T12:52:52;9.70;99.90
50013;DHT22;35901;48.694;9.476;2022-09-27T12:58:23;9.70;99.90
50013;DHT22;35901;48.694;9.476;2022-09-27T13:03:42;9.80;99.90
50013;DHT22;35901;48.694;9.476;2022-09-27T13:14:17;9.80;99.90
50013;DHT22;35901;48.694;9.476;2022-09-27T13:16:46;9.90;99.90
50013;DHT22;35901;48.694;9.476;2022-09-27T13:19:38;10.00;99.90
50013;DHT22;35901;48.694;9.476;2022-09-27T13:22:55;10.20;99.90
50013;DHT22;35901;48.694;9.476;2022-09-27T13:31:07;10.60;99.90
50013;DHT22;35901;48.694;9.476;2022-09-27T13:33:44;10.50;99.90
50013;DHT22;35901;48.694;9.476;2022-09-27T13:36:17;10.20;99.90
50013;DHT22;35901;48.694;9.476;2022-09-27T13:42:02;10.00;99.90
50013;DHT22;35901;48.694;9.476;2022-09-27T13:44:42;10.20;99.90
50013;DHT22;35901;48.694;9.476;2022-09-27T13:47:35;10.30;99.90
50013;DHT22;35901;48.694;9.476;2022-09-27T13:50:26;10.40;99.90
50013;DHT22;35901;48.694;9.476;2022-09-27T13:55:52;10.60;99.90
50013;DHT22;35901;48.694;9.476;2022-09-27T13:58:49;10.60;99.90
50013;DHT22;35901;48.694;9.476;2022-09-27T14:01:55;10.50;99.90
50013;DHT22;35901;48.694;9.476;2022-09-27T14:04:33;10.60;99.90
50013;DHT22;35901;48.694;9.476;2022-09-27T14:07:02;10.70;99.90
50013;DHT22;35901;48.694;9.476;2022-09-27T14:09:32;11.00;99.90
50013;DHT22;35901;48.694;9.476;2022-09-27T14:12:34;11.50;99.90
50013;DHT22;35901;48.694;9.476;2022-09-27T14:15:07;11.70;99.90
50013;DHT22;35901;48.694;9.476;2022-09-27T14:17:34;11.70;99.90
50013;DHT22;35901;48.694;9.476;2022-09-27T14:20:01;11.70;99.90
50013;DHT22;35901;48.694;9.476;2022-09-27T14:22:29;11.70;99.90
50013;DHT22;35901;48.694;9.476;2022-09-27T14:24:58;11.70;99.90
50013;DHT22;35901;48.694;9.476;2022-09-27T14:27:36;11.50;99.90
50013;DHT22;35901;48.694;9.476;2022-09-27T14:30:23;11.30;99.90
50013;DHT22;35901;48.694;9.476;2022-09-27T14:32:59;11.10;99.90
50013;DHT22;35901;48.694;9.476;2022-09-27T14:35:48;11.00;99.90
50013;DHT22;35901;48.694;9.476;2022-09-27T14:38:37;10.90;99.90
50013;DHT22;35901;48.694;9.476;2022-09-27T14:41:07;10.90;99.90
50013;DHT22;35901;48.694;9.476;2022-09-27T14:43:35;10.90;99.90
50013;DHT22;35901;48.694;9.476;2022-09-27T14:46:05;11.10;99.90
50013;DHT22;35901;48.694;9.476;2022-09-27T14:48:36;11.30;99.90
50013;DHT22;35901;48.694;9.476;2022-09-27T14:51:17;11.40;99.90
50013;DHT22;35901;48.694;9.476;2022-09-27T14:53:47;11.50;99.90
50013;DHT22;35901;48.694;9.476;2022-09-27T14:56:17;11.60;99.90
50013;DHT22;35901;48.694;9.476;2022-09-27T14:58:44;11.60;99.90
50013;DHT22;35901;48.694;9.476;2022-09-27T15:01:18;11.50;99.90
50013;DHT22;35901;48.694;9.476;2022-09-27T15:03:46;11.70;99.90
50013;DHT22;35901;48.694;9.476;2022-09-27T15:06:14;11.80;99.90
50013;DHT22;35901;48.694;9.476;2022-09-27T15:08:41;11.90;99.90
50013;DHT22;35901;48.694;9.476;2022-09-27T15:11:09;11.90;99.90
50013;DHT22;35901;48.694;9.476;2022-09-27T15:13:37;11.80;99.90
50013;DHT22;35901;48.694;9.476;2022-09-27T15:16:08;11.60;99.90
50013;DHT22;35901;48.694;9.476;2022-09-27T15:21:08;11.60;99.90
50013;DHT22;35901;48.694;9.476;2022-09-27T15:23:39;11.90;99.90
50013;DHT22;35901;48.694;9.476;2022-09-27T15:28:35;12.30;99.90
50013;DHT22;35901;48.694;9.476;2022-09-27T15:31:05;12.30;99.90
50013;DHT22;35901;48.694;9.476;2022-09-27T15:33:32;12.30;99.50
50013;DHT22;35901;48.694;9.476;2022-09-27T15:36:03;12.40;98.90
50013;DHT22;35901;48.694;9.476;2022-09-27T15:38:34;12.40;98.50
50013;DHT22;35901;48.694;9.476;2022-09-27T15:41:12;12.40;98.00
50013;DHT22;35901;48.694;9.476;2022-09-27T15:43:51;12.10;97.70
50013;DHT22;35901;48.694;9.476;2022-09-27T15:46:27;11.70;98.10
50013;DHT22;35901;48.694;9.476;2022-09-27T15:51:42;10.90;99.10
50013;DHT22;35901;48.694;9.476;2022-09-27T15:54:08;10.70;99.70
50013;DHT22;35901;48.694;9.476;2022-09-27T15:56:34;10.60;99.90
50013;DHT22;35901;48.694;9.476;2022-09-27T15:59:01;10.60;99.90
50013;DHT22;35901;48.694;9.476;2022-09-27T16:01:27;10.50;99.90
50013;DHT22;35901;48.694;9.476;2022-09-27T16:03:52;10.50;99.90
50013;DHT22;35901;48.694;9.476;2022-09-27T16:06:18;10.50;99.90
50013;DHT22;35901;48.694;9.476;2022-09-27T16:08:44;10.40;99.90
50013;DHT22;35901;48.694;9.476;2022-09-27T16:11:14;10.40;99.90
50013;DHT22;35901;48.694;9.476;2022-09-27T16:13:40;10.40;99.90
50013;DHT22;35901;48.694;9.476;2022-09-27T16:16:15;10.40;99.90
50013;DHT22;35901;48.694;9.476;2022-09-27T16:18:43;10.30;99.90
50013;DHT22;35901;48.694;9.476;2022-09-27T16:21:10;10.30;99.90
50013;DHT22;35901;48.694;9.476;2022-09-27T16:23:36;10.30;99.90
50013;DHT22;35901;48.694;9.476;2022-09-27T16:26:03;10.30;99.90
50013;DHT22;35901;48.694;9.476;2022-09-27T16:28:30;10.20;99.90
50013;DHT22;35901;48.694;9.476;2022-09-27T16:31:01;10.20;99.90
50013;DHT22;35901;48.694;9.476;2022-09-27T16:33:29;10.10;99.90
50013;DHT22;35901;48.694;9.476;2022-09-27T16:35:58;10.10;99.90
50013;DHT22;35901;48.694;9.476;2022-09-27T16:38:28;10.00;99.90
50013;DHT22;35901;48.694;9.476;2022-09-27T16:40:59;10.00;99.90
50013;DHT22;35901;48.694;9.476;2022-09-27T16:43:26;10.00;99.90
50013;DHT22;35901;48.694;9.476;2022-09-27T16:45:52;10.00;99.90
50013;DHT22;35901;48.694;9.476;2022-09-27T16:48:30;9.90;99.90
50013;DHT22;35901;48.694;9.476;2022-09-27T16:51:20;9.90;99.90
50013;DHT22;35901;48.694;9.476;2022-09-27T16:54:05;9.90;99.90
50013;DHT22;35901;48.694;9.476;2022-09-27T16:56:35;9.90;99.90
50013;DHT22;35901;48.694;9.476;2022-09-27T16:59:03;9.80;99.90
50013;DHT22;35901;48.694;9.476;2022-09-27T17:01:31;9.80;99.90
50013;DHT22;35901;48.694;9.476;2022-09-27T17:03:57;9.70;99.90
50013;DHT22;35901;48.694;9.476;2022-09-27T17:06:24;9.70;99.90
50013;DHT22;35901;48.694;9.476;2022-09-27T17:08:51;9.70;99.90
50013;DHT22;35901;48.694;9.476;2022-09-27T17:11:18;9.70;99.90
50013;DHT22;35901;48.694;9.476;2022-09-27T17:13:45;9.60;99.90
50013;DHT22;35901;48.694;9.476;2022-09-27T17:16:14;9.60;99.90
50013;DHT22;35901;48.694;9.476;2022-09-27T17:18:41;9.60;99.90
50013;DHT22;35901;48.694;9.476;2022-09-27T17:21:07;9.60;99.90
50013;DHT22;35901;48.694;9.476;2022-09-27T17:23:34;9.60;99.90
50013;DHT22;35901;48.694;9.476;2022-09-27T17:26:06;9.50;99.90
50013;DHT22;35901;48.694;9.476;2022-09-27T17:28:33;9.50;99.90
50013;DHT22;35901;48.694;9.476;2022-09-27T17:31:03;9.50;99.90
50013;DHT22;35901;48.694;9.476;2022-09-27T17:33:30;9.40;99.90
50013;DHT22;35901;48.694;9.476;2022-09-27T17:36:00;9.40;99.90
50013;DHT22;35901;48.694;9.476;2022-09-27T17:38:28;9.40;99.90
50013;DHT22;35901;48.694;9.476;2022-09-27T17:41:05;9.30;99.90
50013;DHT22;35901;48.694;9.476;2022-09-27T17:43:31;9.30;99.90
50013;DHT22;35901;48.694;9.476;2022-09-27T17:46:08;9.30;99.90
50013;DHT22;35901;48.694;9.476;2022-09-27T17:48:35;9.30;99.90
50013;DHT22;35901;48.694;9.476;2022-09-27T17:51:22;9.20;99.90
50013;DHT22;35901;48.694;9.476;2022-09-27T17:53:48;9.10;99.90
50013;DHT22;35901;48.694;9.476;2022-09-27T17:56:14;9.00;99.90
50013;DHT22;35901;48.694;9.476;2022-09-27T18:01:12;9.00;99.90
50013;DHT22;35901;48.694;9.476;2022-09-27T18:03:38;9.00;99.90
50013;DHT22;35901;48.694;9.476;2022-09-27T18:06:05;9.00;99.90
50013;DHT22;35901;48.694;9.476;2022-09-27T18:08:31;9.00;99.90
50013;DHT22;35901;48.694;9.476;2022-09-27T18:11:12;8.90;99.90
50013;DHT22;35901;48.694;9.476;2022-09-27T18:13:39;8.80;99.90
50013;DHT22;35901;48.694;9.476;2022-09-27T18:16:10;8.70;99.90
50013;DHT22;35901;48.694;9.476;2022-09-27T18:18:38;8.60;99.90
50013;DHT22;35901;48.694;9.476;2022-09-27T18:21:12;8.50;99.90
50013;DHT22;35901;48.694;9.476;2022-09-27T18:23:43;8.30;99.90
50013;DHT22;35901;48.694;9.476;2022-09-27T18:26:10;8.20;99.90
50013;DHT22;35901;48.694;9.476;2022-09-27T18:28:38;8.20;99.90
50013;DHT22;35901;48.694;9.476;2022-09-27T18:31:09;8.10;99.90
50013;DHT22;35901;48.694;9.476;2022-09-27T18:33:37;8.00;99.90
50013;DHT22;35901;48.694;9.476;2022-09-27T18:36:17;8.00;99.90
50013;DHT22;35901;48.694;9.476;2022-09-27T18:38:45;7.90;99.90
50013;DHT22;35901;48.694;9.476;2022-09-27T18:41:16;7.90;99.90
50013;DHT22;35901;48.694;9.476;2022-09-27T18:43:44;7.90;99.90
50013;DHT22;35901;48.694;9.476;2022-09-27T18:46:16;7.80;99.90
50013;DHT22;35901;48.694;9.476;2022-09-27T18:48:43;7.80;99.90
50013;DHT22;35901;48.694;9.476;2022-09-27T18:51:16;7.80;99.90
50013;DHT22;35901;48.694;9.476;2022-09-27T18:53:45;7.80;99.90
50013;DHT22;35901;48.694;9.476;2022-09-27T18:56:19;7.80;99.90